Time;durP1;ratioP1;P1;durP2;ratioP2;P2;SDS_P1;SDS_P2;PMS_P1;PMS_P2;Temp;Humidity;BMP_temperature;BMP_pressure;BME280_temperature;BME280_humidity;BME280_pressure;Samples;Min_cycle;Max_cycle;Signal;HPM_P1;HPM_P2
2023/12/23 00:02:17;;;;;;;3.07;1.00;;;28.80;99.90;;;;;;4976239;28;20179;-70
2023/12/23 00:04:45;;;;;;;4.90;1.00;;;29.50;99.90;;;;;;4993700;28;20230;-70
2023/12/23 00:07:14;;;;;;;2.47;0.70;;;29.80;99.90;;;;;;4993608;28;20167;-70
2023/12/23 00:09:42;;;;;;;2.93;1.00;;;30.40;99.90;;;;;;4993677;28;20190;-70
2023/12/23 00:12:09;;;;;;;2.20;0.77;;;30.60;99.90;;;;;;4993475;28;20198;-70
2023/12/23 00:14:37;;;;;;;2.67;1.23;;;30.80;99.90;;;;;;4993312;28;20217;-71
2023/12/23 00:17:05;;;;;;;4.37;0.90;;;30.70;99.90;;;;;;4993526;28;20178;-70
2023/12/23 00:19:32;;;;;;;2.97;0.70;;;31.30;95.20;;;;;;4993591;28;20214;-70
2023/12/23 00:21:59;;;;;;;2.47;0.83;;;31.30;93.90;;;;;;4993380;28;20190;-70
2023/12/23 00:24:29;;;;;;;3.07;0.70;;;31.00;94.50;;;;;;4993551;28;20599;-71
2023/12/23 00:26:57;;;;;;;4.33;1.00;;;31.20;97.70;;;;;;4993741;28;20175;-74
2023/12/23 00:29:25;;;;;;;2.43;1.20;;;30.30;99.90;;;;;;4976122;28;20182;-71
2023/12/23 00:31:53;;;;;;;5.20;1.00;;;29.30;99.90;;;;;;4993499;28;20202;-70
2023/12/23 00:34:20;;;;;;;2.40;0.70;;;29.10;99.90;;;;;;4993745;28;20291;-72
2023/12/23 00:36:47;;;;;;;6.32;1.25;;;30.30;99.90;;;;;;4995560;28;20704;-70
2023/12/23 00:39:18;;;;;;;2.87;0.77;;;30.40;97.80;;;;;;4997570;28;20209;-69
2023/12/23 00:41:45;;;;;;;3.40;0.87;;;30.00;99.60;;;;;;4997478;28;20190;-73
2023/12/23 00:44:13;;;;;;;4.50;1.20;;;29.90;99.90;;;;;;4997011;28;20684;-71
2023/12/23 00:46:40;;;;;;;2.97;0.90;;;29.80;99.90;;;;;;4996926;28;20182;-71
2023/12/23 00:49:07;;;;;;;3.63;1.20;;;30.40;99.20;;;;;;4996624;28;20189;-70
2023/12/23 00:51:34;;;;;;;3.03;1.10;;;30.40;94.50;;;;;;4996207;28;20202;-71
2023/12/23 00:54:02;;;;;;;2.70;0.93;;;30.30;95.80;;;;;;4995906;28;20254;-74
2023/12/23 00:56:29;;;;;;;4.07;1.00;;;30.90;99.90;;;;;;4979411;28;20182;-71
2023/12/23 00:58:56;;;;;;;9.68;3.17;;;30.80;99.90;;;;;;4996420;28;20222;-70
2023/12/23 01:01:25;;;;;;;2.87;0.93;;;30.90;99.90;;;;;;4996705;28;20679;-71
2023/12/23 01:03:52;;;;;;;3.85;1.15;;;30.60;99.90;;;;;;4996696;28;20182;-71
2023/12/23 01:06:19;;;;;;;4.93;1.30;;;31.00;99.90;;;;;;4996816;28;20183;-71
2023/12/23 01:08:47;;;;;;;6.03;1.03;;;31.80;99.90;;;;;;4996398;28;20261;-71
2023/12/23 01:11:14;;;;;;;4.97;1.40;;;32.00;99.90;;;;;;4996405;28;20747;-71
2023/12/23 01:13:41;;;;;;;2.13;1.10;;;31.80;99.90;;;;;;4996548;28;20249;-72
2023/12/23 01:16:09;;;;;;;3.83;1.80;;;31.30;99.90;;;;;;4996449;28;20175;-71
2023/12/23 01:18:36;;;;;;;4.68;1.42;;;31.20;99.90;;;;;;4996566;28;20624;-71
2023/12/23 01:21:04;;;;;;;4.65;1.38;;;31.60;99.90;;;;;;4996157;28;20567;-72
2023/12/23 01:23:31;;;;;;;6.57;2.03;;;31.80;99.90;;;;;;4996114;28;20197;-71
2023/12/23 01:25:58;;;;;;;3.35;0.88;;;32.30;99.60;;;;;;4996172;28;20625;-71
2023/12/23 01:28:26;;;;;;;4.43;1.10;;;31.90;97.10;;;;;;4996220;28;20178;-71
2023/12/23 01:30:53;;;;;;;5.20;1.23;;;31.20;99.90;;;;;;4996050;28;20179;-71
2023/12/23 01:33:20;;;;;;;4.25;1.27;;;31.70;98.00;;;;;;4996193;28;20208;-71
2023/12/23 01:35:47;;;;;;;2.35;1.00;;;31.90;94.50;;;;;;4995878;28;20183;-72
2023/12/23 01:38:15;;;;;;;3.70;0.90;;;32.00;99.90;;;;;;4995960;28;20258;-71
2023/12/23 01:40:42;;;;;;;6.15;1.88;;;32.00;96.40;;;;;;4978350;28;20193;-72
2023/12/23 01:43:09;;;;;;;3.83;1.17;;;30.60;99.90;;;;;;4995761;28;20186;-71
2023/12/23 01:45:36;;;;;;;17.17;11.67;;;29.50;99.90;;;;;;4996152;28;20210;-71
2023/12/23 01:48:05;;;;;;;4.83;1.70;;;29.40;99.90;;;;;;4995141;28;20189;-72
2023/12/23 01:50:32;;;;;;;4.50;1.37;;;29.90;99.90;;;;;;4995743;28;20651;-72
2023/12/23 01:53:01;;;;;;;2.50;1.10;;;30.60;99.90;;;;;;4995774;28;20178;-71
2023/12/23 01:55:31;;;;;;;2.33;1.00;;;31.10;99.90;;;;;;4978211;28;20182;-73
2023/12/23 01:57:58;;;;;;;7.27;3.10;;;31.50;99.90;;;;;;4995421;28;20190;-72
2023/12/23 02:00:26;;;;;;;3.83;2.10;;;31.60;99.90;;;;;;4995834;28;20545;-71
2023/12/23 02:02:54;;;;;;;4.77;1.00;;;30.90;99.90;;;;;;4995669;28;20179;-71
2023/12/23 02:05:21;;;;;;;3.07;0.90;;;30.70;99.90;;;;;;4978046;28;20222;-71
2023/12/23 02:07:49;;;;;;;4.07;1.70;;;30.40;99.90;;;;;;4995892;28;20185;-72
2023/12/23 02:10:17;;;;;;;5.50;2.40;;;30.30;99.90;;;;;;4995347;28;20621;-72
2023/12/23 02:13:10;;;;;;;5.13;1.10;;;30.40;99.90;;;;;;4995539;28;20210;-72
2023/12/23 02:15:39;;;;;;;4.07;1.10;;;30.10;99.90;;;;;;4995587;28;20270;-71
2023/12/23 02:18:06;;;;;;;4.33;1.10;;;29.60;99.90;;;;;;4995654;28;20203;-73
2023/12/23 02:20:33;;;;;;;4.07;1.60;;;29.20;99.90;;;;;;4995345;28;20175;-73
2023/12/23 02:23:01;;;;;;;15.30;9.30;;;28.80;99.90;;;;;;4995413;28;20707;-71
2023/12/23 02:25:28;;;;;;;6.20;1.80;;;29.60;99.90;;;;;;4995224;28;20210;-72
2023/12/23 02:27:59;;;;;;;3.33;1.40;;;30.10;99.90;;;;;;4995040;28;20178;-71
2023/12/23 02:30:28;;;;;;;2.53;1.00;;;31.00;99.90;;;;;;4977387;28;20225;-72
2023/12/23 02:32:55;;;;;;;2.60;1.03;;;31.30;99.90;;;;;;4994774;28;20542;-74
2023/12/23 02:35:24;;;;;;;4.27;1.20;;;31.40;97.30;;;;;;4995013;28;20210;-72
2023/12/23 02:37:51;;;;;;;4.33;1.13;;;31.00;99.90;;;;;;4994562;28;20249;-73
2023/12/23 02:40:19;;;;;;;3.70;1.10;;;31.10;99.90;;;;;;4994549;28;20182;-73
2023/12/23 02:42:47;;;;;;;6.63;1.83;;;31.20;99.90;;;;;;4994798;28;20628;-72
2023/12/23 02:45:14;;;;;;;3.33;1.25;;;31.40;99.90;;;;;;4994612;28;20214;-75
2023/12/23 02:47:41;;;;;;;2.78;1.00;;;31.60;99.90;;;;;;4994865;28;20581;-72
2023/12/23 02:50:09;;;;;;;1.90;0.90;;;31.60;99.00;;;;;;4994769;28;20183;-72
2023/12/23 02:52:42;;;;;;;4.00;1.20;;;31.30;98.60;;;;;;4994609;28;20201;-72
2023/12/23 02:55:09;;;;;;;5.90;1.23;;;31.50;97.00;;;;;;4994651;28;20586;-72
2023/12/23 02:57:36;;;;;;;4.05;1.15;;;31.30;98.20;;;;;;4994505;28;20216;-71
2023/12/23 03:00:04;;;;;;;2.47;0.80;;;31.00;99.50;;;;;;4993321;28;20234;-72
2023/12/23 03:02:31;;;;;;;5.93;1.00;;;30.70;99.90;;;;;;4994568;28;20182;-73
2023/12/23 03:04:59;;;;;;;4.03;1.20;;;30.50;99.90;;;;;;4994438;28;20214;-72
2023/12/23 03:07:26;;;;;;;2.87;1.23;;;30.40;99.90;;;;;;4994449;28;20277;-76
2023/12/23 03:09:53;;;;;;;4.27;0.90;;;30.20;99.90;;;;;;4994458;28;20265;-76
2023/12/23 03:12:21;;;;;;;3.70;1.00;;;30.70;99.90;;;;;;4994288;28;20221;-75
2023/12/23 03:14:48;;;;;;;4.97;1.50;;;30.40;99.90;;;;;;4994260;28;20202;-72
2023/12/23 03:17:15;;;;;;;4.67;1.50;;;30.40;99.90;;;;;;4994423;28;20167;-73
2023/12/23 03:19:43;;;;;;;4.85;1.35;;;30.70;99.90;;;;;;4994318;28;20187;-73
2023/12/23 03:22:10;;;;;;;5.13;1.30;;;30.40;99.90;;;;;;4994214;28;20171;-73
2023/12/23 03:24:37;;;;;;;3.37;1.90;;;30.70;99.90;;;;;;4994048;28;20288;-71
2023/12/23 03:27:05;;;;;;;6.20;1.40;;;30.80;99.90;;;;;;4994021;28;20636;-71
2023/12/23 03:29:32;;;;;;;6.03;1.37;;;30.90;99.90;;;;;;4994078;28;20556;-71
2023/12/23 03:31:59;;;;;;;5.80;1.17;;;31.00;99.90;;;;;;4976432;28;20190;-70
2023/12/23 03:34:27;;;;;;;2.10;1.33;;;30.90;99.90;;;;;;4994118;28;20170;-71
2023/12/23 03:36:54;;;;;;;5.55;1.58;;;31.10;99.90;;;;;;4994251;28;20293;-71
2023/12/23 03:39:21;;;;;;;6.45;1.40;;;30.90;99.90;;;;;;4976808;28;20167;-71
2023/12/23 03:41:49;;;;;;;2.57;0.80;;;30.60;99.90;;;;;;4994048;28;20179;-72
2023/12/23 03:44:16;;;;;;;6.30;0.90;;;30.60;99.90;;;;;;4993743;28;20692;-74
2023/12/23 03:46:44;;;;;;;2.67;0.90;;;30.50;99.90;;;;;;4994027;28;20694;-71
2023/12/23 03:49:11;;;;;;;3.53;1.00;;;30.70;99.90;;;;;;4993744;28;20240;-72
2023/12/23 03:51:38;;;;;;;3.77;1.10;;;30.60;99.90;;;;;;4993631;28;20166;-71
2023/12/23 03:54:06;;;;;;;3.93;1.00;;;30.60;99.90;;;;;;4993614;28;20640;-71
2023/12/23 03:56:33;;;;;;;3.37;0.70;;;30.40;99.90;;;;;;4993655;28;20183;-72
2023/12/23 03:59:00;;;;;;;2.97;0.90;;;30.30;99.90;;;;;;4993434;28;20709;-71
2023/12/23 04:01:28;;;;;;;3.20;1.10;;;30.10;99.90;;;;;;4993829;28;20182;-71
2023/12/23 04:03:55;;;;;;;3.70;1.00;;;29.50;99.90;;;;;;4993637;28;20175;-71
2023/12/23 04:06:22;;;;;;;3.53;0.90;;;30.20;99.90;;;;;;4993903;28;20179;-71
2023/12/23 04:08:49;;;;;;;5.23;1.33;;;30.40;99.90;;;;;;4994258;28;20615;-71
2023/12/23 04:11:17;;;;;;;3.03;1.10;;;30.60;99.90;;;;;;4978697;28;20644;-71
2023/12/23 04:13:44;;;;;;;2.78;1.10;;;30.90;99.90;;;;;;4981677;28;20643;-71
2023/12/23 04:16:11;;;;;;;2.88;0.73;;;31.00;99.90;;;;;;5000214;28;20182;-71
2023/12/23 04:18:38;;;;;;;3.87;1.20;;;29.60;99.90;;;;;;4999637;28;20257;-71
2023/12/23 04:21:09;;;;;;;3.90;0.97;;;29.30;99.90;;;;;;4999242;28;20261;-71
2023/12/23 04:23:37;;;;;;;4.93;1.10;;;29.70;99.90;;;;;;4998526;28;20181;-71
2023/12/23 04:26:05;;;;;;;4.00;1.80;;;29.90;99.90;;;;;;4997787;28;20309;-75
2023/12/23 04:28:33;;;;;;;4.27;1.00;;;30.10;99.90;;;;;;4979308;28;20183;-74
2023/12/23 04:31:00;;;;;;;4.83;1.00;;;30.20;99.90;;;;;;4996012;28;20555;-77
2023/12/23 04:33:28;;;;;;;4.20;0.97;;;30.10;99.90;;;;;;4997247;28;20237;-78
2023/12/23 04:35:55;;;;;;;3.23;0.80;;;29.90;99.90;;;;;;4974033;28;20225;-76
2023/12/23 04:38:22;;;;;;;9.70;2.60;;;30.10;99.90;;;;;;4995403;28;20186;-77
2023/12/23 04:40:50;;;;;;;4.33;1.30;;;29.40;99.90;;;;;;4995380;28;20205;-75
2023/12/23 04:43:17;;;;;;;3.53;1.00;;;29.00;99.90;;;;;;4977486;28;20190;-76
2023/12/23 04:45:44;;;;;;;4.40;1.13;;;28.90;99.90;;;;;;4994907;28;20313;-75
2023/12/23 04:48:12;;;;;;;3.07;1.20;;;28.90;99.90;;;;;;4995314;28;20179;-76
2023/12/23 04:50:39;;;;;;;4.33;1.97;;;29.00;99.90;;;;;;4994903;28;20294;-76
2023/12/23 04:53:06;;;;;;;3.60;1.10;;;29.30;99.90;;;;;;4995348;28;20194;-76
2023/12/23 04:55:34;;;;;;;4.67;1.23;;;29.20;99.90;;;;;;4995580;28;20240;-75
2023/12/23 04:58:01;;;;;;;4.40;1.20;;;29.30;99.90;;;;;;4985946;28;20194;-78
2023/12/23 05:00:28;;;;;;;3.33;1.10;;;29.20;99.90;;;;;;4995612;28;20179;-77
2023/12/23 05:02:55;;;;;;;4.30;0.97;;;29.10;99.90;;;;;;4978185;28;20186;-77
2023/12/23 05:05:24;;;;;;;3.97;0.70;;;29.10;99.90;;;;;;4995130;28;20218;-72
2023/12/23 05:07:51;;;;;;;8.17;1.50;;;28.80;99.90;;;;;;4995238;28;20546;-73
2023/12/23 05:10:19;;;;;;;5.83;0.93;;;29.00;99.90;;;;;;4995222;28;20205;-77
2023/12/23 05:12:46;;;;;;;4.60;1.33;;;28.80;99.90;;;;;;4994916;28;20233;-76
2023/12/23 05:15:13;;;;;;;4.10;1.00;;;28.60;99.90;;;;;;4995433;28;20186;-75
2023/12/23 05:17:41;;;;;;;5.53;1.33;;;28.30;99.90;;;;;;4995029;28;20640;-77
2023/12/23 05:20:10;;;;;;;5.53;1.17;;;27.80;99.90;;;;;;4994864;28;20198;-77
2023/12/23 05:22:37;;;;;;;9.53;1.00;;;27.80;99.90;;;;;;4976346;28;20195;-74
2023/12/23 05:25:04;;;;;;;4.87;1.20;;;27.40;99.90;;;;;;4995102;28;20225;-76
2023/12/23 05:27:32;;;;;;;5.93;1.30;;;27.30;99.90;;;;;;4994550;28;20178;-76
2023/12/23 05:29:59;;;;;;;3.10;1.10;;;27.00;99.90;;;;;;4994927;28;20254;-76
2023/12/23 05:32:26;;;;;;;2.60;0.80;;;27.00;99.90;;;;;;4977409;28;20585;-75
2023/12/23 05:34:54;;;;;;;4.07;1.20;;;27.00;99.90;;;;;;4994553;28;20178;-74
2023/12/23 05:37:21;;;;;;;4.37;1.20;;;27.30;99.90;;;;;;4994961;28;21881;-75
2023/12/23 05:39:48;;;;;;;4.17;1.50;;;27.40;99.90;;;;;;4994816;28;20256;-75
2023/12/23 05:42:16;;;;;;;2.67;0.90;;;27.70;99.90;;;;;;4994315;28;20661;-75
2023/12/23 05:44:43;;;;;;;2.97;0.97;;;28.00;99.90;;;;;;4994596;28;20207;-75
2023/12/23 05:47:11;;;;;;;9.47;1.77;;;28.20;99.90;;;;;;4994564;28;20186;-76
2023/12/23 05:49:39;;;;;;;6.67;0.90;;;28.10;99.90;;;;;;4994298;28;20241;-75
2023/12/23 05:52:06;;;;;;;4.80;1.00;;;27.70;99.90;;;;;;4994223;28;20186;-75
2023/12/23 05:54:34;;;;;;;3.07;0.83;;;27.90;99.90;;;;;;4994561;28;20264;-74
2023/12/23 05:57:01;;;;;;;4.57;0.97;;;27.50;99.90;;;;;;4993785;28;20266;-73
2023/12/23 05:59:29;;;;;;;2.70;1.00;;;27.40;99.90;;;;;;4994108;28;20230;-74
2023/12/23 06:01:56;;;;;;;4.07;1.00;;;27.60;99.90;;;;;;4976604;28;20553;-76
2023/12/23 06:04:23;;;;;;;2.87;1.23;;;27.50;99.90;;;;;;4994226;28;20203;-74
2023/12/23 06:06:50;;;;;;;6.87;1.47;;;27.20;99.90;;;;;;4994952;28;20186;-75
2023/12/23 06:09:18;;;;;;;4.33;1.20;;;27.10;99.90;;;;;;4994869;28;20229;-76
2023/12/23 06:11:45;;;;;;;3.73;1.03;;;26.80;99.90;;;;;;4994259;28;20175;-73
2023/12/23 06:14:12;;;;;;;3.47;0.90;;;26.70;99.90;;;;;;4994148;28;20181;-75
2023/12/23 06:16:40;;;;;;;2.90;1.20;;;26.60;99.90;;;;;;4994728;28;20193;-74
2023/12/23 06:19:08;;;;;;;4.70;1.00;;;26.40;99.90;;;;;;4995369;28;20220;-75
2023/12/23 06:21:35;;;;;;;8.17;1.33;;;26.40;99.90;;;;;;4995809;28;20183;-75
2023/12/23 06:24:03;;;;;;;4.13;1.00;;;26.50;99.90;;;;;;4995481;28;20261;-74
2023/12/23 06:26:30;;;;;;;2.43;0.90;;;26.50;99.90;;;;;;4995607;28;20191;-75
2023/12/23 06:28:57;;;;;;;2.93;1.27;;;26.50;99.90;;;;;;4977836;28;20178;-75
2023/12/23 06:31:24;;;;;;;4.63;1.07;;;26.70;99.90;;;;;;4995578;28;20178;-75
2023/12/23 06:33:52;;;;;;;3.63;0.73;;;26.70;99.90;;;;;;4995137;28;20179;-73
2023/12/23 06:36:19;;;;;;;3.30;1.03;;;26.60;99.90;;;;;;4995586;28;20262;-75
2023/12/23 06:38:48;;;;;;;4.83;1.00;;;26.60;99.90;;;;;;4995280;28;20208;-75
2023/12/23 06:41:15;;;;;;;3.43;1.00;;;26.60;99.90;;;;;;4977596;28;20589;-75
2023/12/23 06:43:43;;;;;;;4.70;1.00;;;26.60;99.90;;;;;;4994894;28;20285;-75
2023/12/23 06:46:11;;;;;;;3.20;1.10;;;26.40;99.90;;;;;;4995355;28;20218;-76
2023/12/23 06:48:38;;;;;;;2.77;0.80;;;26.10;99.90;;;;;;4977190;28;20552;-75
2023/12/23 06:51:06;;;;;;;4.83;1.20;;;25.80;99.90;;;;;;4994643;28;20269;-76
2023/12/23 06:53:33;;;;;;;3.33;0.93;;;25.60;99.90;;;;;;4996094;28;20186;-76
2023/12/23 06:56:05;;;;;;;6.80;1.30;;;25.60;99.90;;;;;;4977556;28;20525;-74
2023/12/23 06:58:33;;;;;;;5.10;1.43;;;25.70;99.90;;;;;;4994526;28;20238;-75
2023/12/23 07:01:00;;;;;;;2.30;0.70;;;25.60;99.90;;;;;;4977107;28;20183;-76
2023/12/23 07:03:27;;;;;;;7.43;1.37;;;25.40;99.90;;;;;;4972223;28;20190;-74
2023/12/23 07:05:55;;;;;;;3.00;1.00;;;25.40;99.90;;;;;;4993302;28;20691;-76
2023/12/23 07:08:22;;;;;;;3.33;1.10;;;25.30;99.90;;;;;;4993085;28;20189;-76
2023/12/23 07:10:50;;;;;;;4.57;0.80;;;25.10;99.90;;;;;;4975130;28;20210;-74
2023/12/23 07:13:18;;;;;;;5.83;0.90;;;25.00;99.90;;;;;;4992575;28;20183;-74
2023/12/23 07:15:45;;;;;;;3.90;0.90;;;24.90;99.90;;;;;;4993170;28;20194;-75
2023/12/23 07:18:12;;;;;;;6.10;1.33;;;24.90;99.90;;;;;;4974957;28;20574;-74
2023/12/23 07:20:41;;;;;;;5.13;1.23;;;24.70;99.90;;;;;;4992892;28;20628;-76
2023/12/23 07:23:08;;;;;;;3.63;1.10;;;24.60;99.90;;;;;;4992712;28;20204;-74
2023/12/23 07:25:36;;;;;;;5.47;1.10;;;24.60;99.90;;;;;;4992627;28;20245;-74
2023/12/23 07:28:03;;;;;;;6.20;0.90;;;24.50;99.90;;;;;;4993219;28;20178;-74
2023/12/23 07:30:30;;;;;;;4.07;1.00;;;24.40;99.90;;;;;;4993313;28;20186;-75
2023/12/23 07:32:58;;;;;;;4.67;1.17;;;24.30;99.90;;;;;;4992822;28;20551;-74
2023/12/23 07:35:26;;;;;;;5.40;1.20;;;24.00;99.90;;;;;;4975066;28;20203;-76
2023/12/23 07:37:53;;;;;;;7.27;1.27;;;24.00;99.90;;;;;;4992874;28;20183;-78
2023/12/23 07:40:21;;;;;;;5.43;1.57;;;24.00;99.90;;;;;;4992410;28;20178;-76
2023/12/23 07:42:49;;;;;;;4.80;1.00;;;24.00;99.90;;;;;;4992286;28;20645;-76
2023/12/23 07:45:17;;;;;;;7.13;1.23;;;24.00;99.90;;;;;;4992657;28;20222;-76
2023/12/23 07:47:46;;;;;;;5.33;1.00;;;23.90;99.90;;;;;;4991787;28;20190;-76
2023/12/23 07:50:13;;;;;;;2.53;0.97;;;23.90;99.90;;;;;;4992156;28;20660;-76
2023/12/23 07:52:40;;;;;;;7.57;1.80;;;23.90;99.90;;;;;;4992398;28;20178;-74
2023/12/23 07:55:08;;;;;;;12.50;1.63;;;23.90;99.90;;;;;;4991708;28;20182;-76
2023/12/23 07:57:36;;;;;;;4.80;1.37;;;23.80;99.90;;;;;;4992451;28;20174;-73
2023/12/23 08:00:03;;;;;;;6.00;1.20;;;23.80;99.90;;;;;;4992496;28;20233;-74
2023/12/23 08:02:31;;;;;;;6.37;1.40;;;23.70;99.90;;;;;;4974535;28;20198;-74
2023/12/23 08:04:59;;;;;;;3.97;1.20;;;23.60;99.90;;;;;;4991402;28;20218;-73
2023/12/23 08:07:26;;;;;;;4.93;1.00;;;23.50;99.90;;;;;;4992213;28;20186;-74
2023/12/23 08:09:53;;;;;;;2.87;0.90;;;23.50;99.90;;;;;;4991936;28;20197;-75
2023/12/23 08:12:21;;;;;;;4.07;1.00;;;23.50;99.90;;;;;;4993562;28;20182;-75
2023/12/23 08:14:48;;;;;;;6.37;1.20;;;23.40;99.90;;;;;;4992593;28;20183;-75
2023/12/23 08:17:15;;;;;;;2.50;1.00;;;23.30;99.90;;;;;;4992665;28;20167;-75
2023/12/23 08:19:42;;;;;;;6.30;1.20;;;23.20;99.90;;;;;;4992343;28;20171;-75
2023/12/23 08:22:10;;;;;;;3.67;1.10;;;23.20;99.90;;;;;;4992791;28;20174;-73
2023/12/23 08:24:37;;;;;;;5.83;1.10;;;23.20;99.90;;;;;;4991847;28;20206;-76
2023/12/23 08:27:05;;;;;;;4.27;1.27;;;23.10;99.90;;;;;;4993199;28;20186;-74
2023/12/23 08:29:33;;;;;;;5.13;1.40;;;23.00;99.90;;;;;;4992627;28;20182;-74
2023/12/23 08:32:00;;;;;;;4.43;1.00;;;22.90;99.90;;;;;;4974466;28;20218;-75
2023/12/23 08:34:28;;;;;;;3.27;1.00;;;22.90;99.90;;;;;;4992026;28;20213;-75
2023/12/23 08:36:55;;;;;;;3.03;0.90;;;22.90;99.90;;;;;;4992418;28;20540;-74
2023/12/23 08:39:22;;;;;;;5.27;1.33;;;23.00;99.90;;;;;;4991576;28;20201;-75
2023/12/23 08:41:50;;;;;;;4.47;1.20;;;22.90;99.90;;;;;;4992166;28;20187;-72
2023/12/23 08:44:20;;;;;;;6.03;1.00;;;22.80;99.90;;;;;;4992010;28;20300;-74
2023/12/23 08:46:48;;;;;;;3.27;1.10;;;22.70;99.90;;;;;;4991726;28;20179;-72
2023/12/23 08:49:15;;;;;;;2.70;1.00;;;22.60;99.90;;;;;;4991983;28;20182;-74
2023/12/23 08:51:45;;;;;;;4.00;1.07;;;22.50;99.90;;;;;;4991994;28;20182;-72
2023/12/23 08:54:12;;;;;;;5.27;0.87;;;22.50;99.90;;;;;;4991681;28;20262;-76
2023/12/23 08:56:43;;;;;;;7.07;1.30;;;22.30;99.90;;;;;;4992202;28;20175;-75
2023/12/23 08:59:10;;;;;;;4.37;1.33;;;22.30;99.90;;;;;;4995429;28;20767;-74
2023/12/23 09:01:37;;;;;;;5.47;1.50;;;22.30;99.90;;;;;;4994765;28;20178;-73
2023/12/23 09:04:05;;;;;;;6.23;1.33;;;22.30;99.90;;;;;;4994752;28;20786;-74
2023/12/23 09:06:32;;;;;;;4.57;1.40;;;22.30;99.90;;;;;;4995048;28;20186;-74
2023/12/23 09:08:59;;;;;;;6.43;1.37;;;22.40;99.90;;;;;;4994951;28;20270;-74
2023/12/23 09:11:26;;;;;;;5.00;1.10;;;22.30;99.90;;;;;;4995389;28;20185;-73
2023/12/23 09:13:54;;;;;;;5.73;1.20;;;22.30;99.90;;;;;;4977765;28;20254;-73
2023/12/23 09:16:21;;;;;;;7.23;1.13;;;22.30;99.90;;;;;;4994578;28;20240;-74
2023/12/23 09:18:48;;;;;;;6.00;1.10;;;22.30;99.90;;;;;;4995259;28;20185;-74
2023/12/23 09:21:16;;;;;;;5.37;1.50;;;22.20;99.90;;;;;;4995473;28;20182;-75
2023/12/23 09:23:43;;;;;;;6.83;1.67;;;22.20;99.90;;;;;;4994905;28;20960;-74
2023/12/23 09:26:11;;;;;;;6.57;1.60;;;22.30;99.90;;;;;;4995169;28;20226;-76
2023/12/23 09:28:39;;;;;;;6.63;1.43;;;22.20;99.90;;;;;;4977412;28;20253;-74
2023/12/23 09:31:06;;;;;;;6.23;1.37;;;22.10;99.90;;;;;;4994402;28;20537;-74
2023/12/23 09:33:33;;;;;;;9.47;1.43;;;22.10;99.90;;;;;;4996232;28;20652;-75
2023/12/23 09:36:01;;;;;;;7.47;1.40;;;22.10;99.90;;;;;;4989269;28;20197;-74
2023/12/23 09:38:28;;;;;;;2.60;1.20;;;22.10;99.90;;;;;;4996179;28;20237;-74
2023/12/23 09:40:55;;;;;;;5.23;1.07;;;22.10;99.90;;;;;;4996354;28;20269;-75
2023/12/23 09:43:23;;;;;;;3.00;1.17;;;22.10;99.90;;;;;;4978419;28;20249;-75
2023/12/23 09:45:52;;;;;;;5.30;1.47;;;22.10;99.90;;;;;;4996004;28;20234;-74
2023/12/23 09:48:19;;;;;;;6.80;1.27;;;22.00;99.90;;;;;;4995867;28;20237;-75
2023/12/23 09:50:47;;;;;;;4.70;1.30;;;22.00;99.90;;;;;;4996017;28;20566;-75
2023/12/23 09:53:15;;;;;;;4.50;1.20;;;22.10;99.90;;;;;;4995477;28;20539;-74
2023/12/23 09:55:42;;;;;;;4.20;1.30;;;22.00;99.90;;;;;;4995903;28;20266;-75
2023/12/23 09:58:10;;;;;;;5.83;1.30;;;22.00;99.90;;;;;;4976971;28;20186;-75
2023/12/23 10:00:37;;;;;;;4.37;1.67;;;22.00;99.90;;;;;;4959518;28;20202;-74
2023/12/23 10:03:05;;;;;;;6.23;1.40;;;22.00;99.90;;;;;;4987374;28;20277;-74
2023/12/23 10:05:32;;;;;;;8.27;1.70;;;22.10;99.90;;;;;;4995563;28;20301;-74
2023/12/23 10:08:00;;;;;;;6.33;1.10;;;22.00;99.90;;;;;;4995338;28;20332;-74
2023/12/23 10:10:31;;;;;;;8.10;1.83;;;22.00;99.90;;;;;;4994915;28;20756;-74
2023/12/23 10:12:58;;;;;;;8.37;1.10;;;22.00;99.90;;;;;;4995757;28;20202;-74
2023/12/23 10:15:25;;;;;;;6.37;1.50;;;22.00;99.90;;;;;;4978475;28;20525;-75
2023/12/23 10:17:53;;;;;;;5.70;1.20;;;21.90;99.90;;;;;;4979791;28;20206;-74
2023/12/23 10:20:21;;;;;;;6.10;1.40;;;21.90;99.90;;;;;;4997243;28;20231;-75
2023/12/23 10:22:49;;;;;;;4.00;1.30;;;21.90;99.90;;;;;;4998656;28;20222;-75
2023/12/23 10:25:16;;;;;;;5.77;1.30;;;21.90;99.90;;;;;;4997256;28;20273;-74
2023/12/23 10:27:44;;;;;;;4.13;1.40;;;21.90;99.90;;;;;;4996322;28;20240;-74
2023/12/23 10:30:12;;;;;;;4.60;1.57;;;21.90;99.90;;;;;;4995494;28;20197;-75
2023/12/23 10:32:42;;;;;;;6.97;1.67;;;21.80;99.90;;;;;;4973631;28;20266;-75
2023/12/23 10:35:14;;;;;;;6.70;1.67;;;21.90;99.90;;;;;;4993121;28;20304;-75
2023/12/23 10:37:42;;;;;;;6.53;2.13;;;21.90;99.90;;;;;;4993540;28;20179;-73
2023/12/23 10:40:25;;;;;;;6.57;2.73;;;21.90;99.90;;;;;;4993295;28;20194;-76
2023/12/23 10:42:54;;;;;;;7.27;1.80;;;21.90;99.90;;;;;;4993155;28;20690;-75
2023/12/23 10:45:22;;;;;;;6.87;2.13;;;21.90;99.90;;;;;;4993484;28;20223;-76
2023/12/23 10:47:51;;;;;;;6.97;2.23;;;21.80;99.90;;;;;;4993335;28;20277;-73
2023/12/23 10:50:19;;;;;;;7.07;1.40;;;21.90;99.90;;;;;;4993460;28;20190;-74
2023/12/23 10:52:47;;;;;;;3.23;1.23;;;21.90;99.90;;;;;;4994085;28;20178;-74
2023/12/23 10:55:15;;;;;;;6.47;1.37;;;21.90;99.90;;;;;;4994226;28;20191;-74
2023/12/23 10:57:45;;;;;;;4.80;1.40;;;21.90;99.90;;;;;;4976595;28;20554;-76
2023/12/23 11:00:13;;;;;;;6.27;1.60;;;21.90;99.90;;;;;;4993605;28;20252;-73
2023/12/23 11:02:41;;;;;;;8.63;1.87;;;21.90;99.90;;;;;;4992510;28;20980;-73
2023/12/23 11:05:10;;;;;;;7.20;1.73;;;21.90;99.90;;;;;;4993458;28;20711;-74
2023/12/23 11:07:48;;;;;;;5.53;1.43;;;21.90;99.90;;;;;;4976192;28;20171;-75
2023/12/23 11:10:16;;;;;;;4.27;1.33;;;22.00;99.90;;;;;;4993335;28;20194;-75
2023/12/23 11:12:44;;;;;;;4.00;1.23;;;22.00;99.90;;;;;;4992758;28;20237;-75
2023/12/23 11:15:12;;;;;;;4.37;1.40;;;22.00;99.90;;;;;;4993015;28;20579;-74
2023/12/23 11:17:45;;;;;;;7.00;1.30;;;22.00;99.90;;;;;;4994357;28;20555;-74
2023/12/23 11:20:30;;;;;;;5.90;1.40;;;22.00;99.90;;;;;;4993627;28;20195;-74
2023/12/23 11:23:17;;;;;;;10.23;1.87;;;21.90;99.90;;;;;;4994836;28;20197;-74
2023/12/23 11:25:45;;;;;;;8.67;1.37;;;21.90;99.90;;;;;;4994469;28;20726;-74
2023/12/23 11:28:14;;;;;;;5.87;1.57;;;21.80;99.90;;;;;;4994177;28;20700;-74
2023/12/23 11:30:48;;;;;;;3.83;1.20;;;21.80;99.90;;;;;;4992237;28;20203;-74
2023/12/23 11:33:18;;;;;;;7.50;1.93;;;21.80;99.90;;;;;;4994212;28;20178;-72
2023/12/23 11:35:53;;;;;;;10.17;1.70;;;21.80;99.90;;;;;;4993818;28;20186;-74
2023/12/23 11:38:50;;;;;;;3.70;1.40;;;21.70;99.90;;;;;;4994017;28;20205;-74
2023/12/23 11:41:18;;;;;;;5.77;1.43;;;21.80;99.90;;;;;;4993260;28;20195;-74
2023/12/23 11:43:52;;;;;;;5.53;1.27;;;21.70;99.90;;;;;;4993771;28;20187;-74
2023/12/23 11:46:22;;;;;;;7.70;1.23;;;21.80;99.90;;;;;;4993877;28;20308;-74
2023/12/23 11:48:50;;;;;;;5.73;1.23;;;21.80;99.90;;;;;;4993602;28;20179;-74
2023/12/23 11:51:17;;;;;;;6.07;1.30;;;21.80;99.90;;;;;;4994198;28;20197;-73
2023/12/23 11:53:45;;;;;;;4.53;1.50;;;21.80;99.90;;;;;;4994074;28;20185;-73
2023/12/23 11:56:14;;;;;;;11.53;1.70;;;21.70;99.90;;;;;;4993790;28;20186;-74
2023/12/23 11:58:42;;;;;;;7.10;1.27;;;21.60;99.90;;;;;;4993546;28;20605;-74
2023/12/23 12:01:10;;;;;;;6.97;1.87;;;21.60;99.90;;;;;;4993749;28;20236;-74
2023/12/23 12:03:37;;;;;;;6.07;1.57;;;21.60;99.90;;;;;;4993560;28;20178;-74
2023/12/23 12:06:04;;;;;;;5.57;1.20;;;21.70;99.90;;;;;;4993529;28;20282;-74
2023/12/23 12:08:32;;;;;;;9.20;1.67;;;21.70;99.90;;;;;;4994075;28;20205;-73
2023/12/23 12:11:02;;;;;;;7.47;2.13;;;21.70;99.90;;;;;;4987968;28;20197;-74
2023/12/23 12:13:30;;;;;;;11.83;1.63;;;21.70;99.90;;;;;;4993481;28;20186;-74
2023/12/23 12:15:57;;;;;;;5.60;1.10;;;21.60;99.90;;;;;;4993978;28;20238;-74
2023/12/23 12:18:25;;;;;;;4.47;1.20;;;21.60;99.90;;;;;;4975752;28;20207;-74
2023/12/23 12:20:52;;;;;;;5.10;1.67;;;21.60;99.90;;;;;;4993382;28;20536;-74
2023/12/23 12:23:20;;;;;;;8.57;1.50;;;21.60;99.90;;;;;;4993648;28;20566;-74
2023/12/23 12:25:51;;;;;;;7.60;1.10;;;21.50;99.90;;;;;;4994132;28;20222;-73
2023/12/23 12:28:19;;;;;;;4.47;1.17;;;21.50;99.90;;;;;;4993679;28;20198;-73
2023/12/23 12:30:47;;;;;;;4.70;1.23;;;21.40;99.90;;;;;;4994427;28;20278;-75
2023/12/23 12:33:16;;;;;;;7.83;2.17;;;21.40;99.90;;;;;;4974897;28;20621;-73
2023/12/23 12:35:43;;;;;;;7.07;1.70;;;21.40;99.90;;;;;;4997035;28;20193;-73
2023/12/23 12:38:11;;;;;;;5.23;1.30;;;21.40;99.90;;;;;;4996610;28;20190;-74
2023/12/23 12:40:41;;;;;;;5.80;1.27;;;21.50;99.90;;;;;;4996365;28;20202;-73
2023/12/23 12:43:08;;;;;;;4.97;1.50;;;21.40;99.90;;;;;;4997221;28;20190;-75
2023/12/23 12:45:40;;;;;;;4.27;1.20;;;21.50;99.90;;;;;;4979758;28;20241;-75
2023/12/23 12:48:11;;;;;;;6.30;1.20;;;21.50;99.90;;;;;;4996321;28;20269;-75
2023/12/23 12:50:44;;;;;;;6.83;2.10;;;21.40;99.90;;;;;;4996834;28;20269;-74